Time;durP1;ratioP1;P1;durP2;ratioP2;P2;SDS_P1;SDS_P2;PMS_P1;PMS_P2;Temp;Humidity;BMP_temperature;BMP_pressure;BME280_temperature;BME280_humidity;BME280_pressure;Samples;Min_cycle;Max_cycle;Signal;HPM_P1;HPM_P2
2020/12/13 00:00:33;;;;;;;31.02;17.20;;;;;;;-1.01;88.29;99157.38;1799888;79;21065;-65
2020/12/13 00:03:01;;;;;;;31.52;19.80;;;;;;;-0.99;88.34;99157.34;1799901;79;21096;-65
2020/12/13 00:05:29;;;;;;;30.10;17.60;;;;;;;-1.00;88.32;99159.08;1799848;79;21564;-65
2020/12/13 00:07:57;;;;;;;33.10;18.80;;;;;;;-0.98;88.41;99156.06;1799809;79;21218;-65
2020/12/13 00:10:24;;;;;;;27.90;17.42;;;;;;;-0.96;88.39;99154.37;1799888;79;21474;-65
2020/12/13 00:12:53;;;;;;;33.78;19.17;;;;;;;-0.97;88.37;99157.77;1799837;78;21053;-65
2020/12/13 00:15:21;;;;;;;28.85;16.70;;;;;;;-1.00;88.42;99153.12;1799926;79;21543;-65
2020/12/13 00:17:51;;;;;;;32.00;18.45;;;;;;;-1.01;88.56;99152.27;1799998;79;21205;-65
2020/12/13 00:20:19;;;;;;;35.63;18.48;;;;;;;-1.02;88.60;99148.02;1799785;79;21097;-66
2020/12/13 00:22:48;;;;;;;27.95;16.90;;;;;;;-1.01;88.75;99136.95;1799884;79;21115;-66
2020/12/13 00:25:15;;;;;;;29.48;16.82;;;;;;;-1.00;88.77;99136.53;1799727;79;21025;-66
2020/12/13 00:27:43;;;;;;;27.82;17.20;;;;;;;-0.98;88.78;99130.97;1799885;78;21049;-66
2020/12/13 00:30:10;;;;;;;27.85;17.37;;;;;;;-0.95;88.90;99128.41;1799866;79;21509;-66
2020/12/13 00:32:38;;;;;;;26.95;16.37;;;;;;;-0.94;88.85;99150.54;1799774;79;21580;-66
2020/12/13 00:35:06;;;;;;;24.35;15.48;;;;;;;-0.93;88.76;99138.20;1799860;78;21199;-66
2020/12/13 00:37:33;;;;;;;29.02;17.17;;;;;;;-0.92;88.75;99144.59;1799828;79;21072;-66
2020/12/13 00:40:01;;;;;;;29.27;17.07;;;;;;;-0.89;88.70;99148.84;1799889;79;21092;-66
2020/12/13 00:42:28;;;;;;;29.42;16.73;;;;;;;-0.86;88.81;99147.57;1799888;79;21367;-66
2020/12/13 00:44:56;;;;;;;25.68;16.10;;;;;;;-0.83;88.72;99146.30;1799854;78;21988;-65
2020/12/13 00:47:24;;;;;;;25.43;16.15;;;;;;;-0.82;88.53;99140.34;1799817;78;21045;-66
2020/12/13 00:49:51;;;;;;;29.90;17.30;;;;;;;-0.84;88.52;99144.59;1799916;79;21480;-66
2020/12/13 00:52:19;;;;;;;21.80;14.95;;;;;;;-0.87;88.58;99135.23;1799896;79;21116;-66
2020/12/13 00:54:47;;;;;;;21.85;14.45;;;;;;;-0.88;88.71;99142.46;1799923;79;21611;-66
2020/12/13 00:57:14;;;;;;;24.95;14.63;;;;;;;-0.89;88.74;99142.03;1799799;79;21060;-66
2020/12/13 00:59:42;;;;;;;25.05;14.47;;;;;;;-0.90;88.89;99135.66;1799828;79;21057;-66
2020/12/13 01:02:10;;;;;;;23.05;14.95;;;;;;;-0.90;89.05;99140.33;1799846;78;21548;-66
2020/12/13 01:04:38;;;;;;;18.57;12.68;;;;;;;-0.89;89.07;99136.93;1799822;79;21168;-66
2020/12/13 01:07:06;;;;;;;18.70;12.95;;;;;;;-0.85;89.04;99132.67;1799825;78;21995;-66
2020/12/13 01:09:33;;;;;;;17.20;12.18;;;;;;;-0.83;89.09;99143.73;1799764;79;21500;-66
2020/12/13 01:12:01;;;;;;;22.22;13.45;;;;;;;-0.83;89.10;99144.59;1799873;78;21545;-66
2020/12/13 01:14:28;;;;;;;19.02;12.63;;;;;;;-0.83;89.13;99136.94;1799795;79;21119;-66
2020/12/13 01:16:56;;;;;;;19.70;12.40;;;;;;;-0.81;89.10;99139.06;1799861;79;21076;-66
2020/12/13 01:19:24;;;;;;;19.42;13.80;;;;;;;-0.80;89.21;99139.91;1799868;79;21201;-66
2020/12/13 01:21:52;;;;;;;20.85;12.82;;;;;;;-0.78;89.31;99137.75;1799791;78;21112;-66
2020/12/13 01:24:19;;;;;;;17.73;12.58;;;;;;;-0.72;89.40;99145.84;1799786;79;21576;-66
2020/12/13 01:26:46;;;;;;;16.70;10.93;;;;;;;-0.67;89.23;99136.47;1799724;79;21035;-66
2020/12/13 01:29:14;;;;;;;15.72;11.35;;;;;;;-0.61;89.25;99141.58;1799832;78;21708;-66
2020/12/13 01:31:41;;;;;;;18.57;11.60;;;;;;;-0.58;89.04;99128.78;1799869;79;21201;-66
2020/12/13 01:34:09;;;;;;;17.48;11.30;;;;;;;-0.56;88.68;99137.72;1799769;79;21152;-66
2020/12/13 01:36:36;;;;;;;16.75;11.45;;;;;;;-0.59;88.53;99136.44;1799833;78;21053;-66
2020/12/13 01:39:04;;;;;;;16.93;11.30;;;;;;;-0.60;88.53;99139.87;1799833;79;21077;-66
2020/12/13 01:41:32;;;;;;;17.62;10.82;;;;;;;-0.61;88.68;99133.06;1799812;79;21116;-66
2020/12/13 01:44:04;;;;;;;15.68;10.75;;;;;;;-0.60;88.69;99129.66;1799824;79;21287;-66
2020/12/13 01:46:34;;;;;;;12.95;9.40;;;;;;;-0.59;88.63;99136.44;1800204;79;21127;-66
2020/12/13 01:49:07;;;;;;;16.25;10.72;;;;;;;-0.58;88.54;99139.42;1800079;79;21132;-66
2020/12/13 01:54:15;;;;;;;15.15;10.38;;;;;;;-0.59;88.69;99135.16;1800028;79;21104;-66
2020/12/13 01:56:47;;;;;;;17.95;11.05;;;;;;;-0.58;88.79;99130.05;1800101;79;21336;-65
2020/12/13 01:59:19;;;;;;;16.48;10.55;;;;;;;-0.55;88.73;99130.05;1799544;78;21076;-65
2020/12/13 02:01:54;;;;;;;16.53;11.33;;;;;;;-0.54;88.68;99118.13;1800285;78;21065;-66
2020/12/13 02:04:22;;;;;;;18.82;11.33;;;;;;;-0.53;88.68;99119.41;1800046;78;21112;-66
2020/12/13 02:06:52;;;;;;;15.10;10.78;;;;;;;-0.52;88.78;99121.11;1799992;79;21203;-66
2020/12/13 02:09:22;;;;;;;15.88;10.63;;;;;;;-0.46;88.71;99125.36;1800021;79;21354;-65
2020/12/13 02:11:51;;;;;;;15.18;10.60;;;;;;;-0.45;88.68;99127.91;1799917;78;21108;-65
2020/12/13 02:14:19;;;;;;;14.83;9.95;;;;;;;-0.42;88.76;99125.78;1799970;79;21545;-65
2020/12/13 02:16:53;;;;;;;14.70;10.00;;;;;;;-0.39;88.76;99124.47;1799942;78;21085;-65
2020/12/13 02:19:21;;;;;;;14.18;10.13;;;;;;;-0.38;88.74;99116.80;1800040;78;21072;-65
2020/12/13 02:21:51;;;;;;;15.43;10.10;;;;;;;-0.36;88.75;99117.64;1800013;79;21475;-65
2020/12/13 02:24:19;;;;;;;15.38;10.30;;;;;;;-0.35;88.85;99120.62;1799886;78;21152;-65
2020/12/13 02:26:47;;;;;;;14.53;10.90;;;;;;;-0.33;88.89;99120.62;1799861;79;21049;-65
2020/12/13 02:29:15;;;;;;;15.40;10.88;;;;;;;-0.33;88.89;99115.94;1799958;79;21045;-66
2020/12/13 02:31:43;;;;;;;20.37;10.78;;;;;;;-0.35;88.98;99113.39;1799952;79;21109;-65
2020/12/13 02:34:11;;;;;;;15.70;11.15;;;;;;;-0.34;89.20;99124.03;1799946;79;22242;-65
2020/12/13 02:36:39;;;;;;;18.45;11.20;;;;;;;-0.35;89.31;99115.52;1799893;78;21616;-65
2020/12/13 02:39:07;;;;;;;14.45;10.20;;;;;;;-0.35;89.43;99110.83;1799971;78;21057;-65
2020/12/13 02:41:34;;;;;;;15.08;10.23;;;;;;;-0.32;89.58;99117.64;1799962;78;21088;-65
2020/12/13 02:44:02;;;;;;;19.67;11.57;;;;;;;-0.31;89.57;99118.92;1799914;78;21049;-65
2020/12/13 02:46:30;;;;;;;20.85;11.78;;;;;;;-0.32;89.78;99121.05;1799964;78;21363;-65
2020/12/13 02:48:57;;;;;;;19.25;11.97;;;;;;;-0.32;89.71;99125.30;1799891;79;21171;-65
2020/12/13 02:51:25;;;;;;;18.02;11.60;;;;;;;-0.35;89.93;99124.88;1799970;79;21053;-65
2020/12/13 02:53:52;;;;;;;16.32;11.10;;;;;;;-0.32;90.01;99122.33;1799925;78;22062;-65
2020/12/13 02:56:20;;;;;;;19.30;12.18;;;;;;;-0.31;90.01;99127.01;1800012;79;21709;-65
2020/12/13 02:58:48;;;;;;;17.10;11.80;;;;;;;-0.33;90.13;99125.73;1799921;79;23581;-65
2020/12/13 03:01:15;;;;;;;19.75;13.15;;;;;;;-0.30;90.30;99126.16;1799897;78;21064;-65
2020/12/13 03:03:43;;;;;;;17.05;10.72;;;;;;;-0.28;90.25;99121.89;1799925;78;21068;-65
2020/12/13 03:06:11;;;;;;;17.40;11.70;;;;;;;-0.25;90.25;99121.45;1799918;79;21104;-66
2020/12/13 03:08:38;;;;;;;20.50;12.73;;;;;;;-0.23;90.35;99119.75;1799939;79;21144;-65
2020/12/13 03:11:07;;;;;;;20.45;13.22;;;;;;;-0.21;90.37;99116.77;1799865;78;22036;-65
2020/12/13 03:13:36;;;;;;;18.20;11.93;;;;;;;-0.20;90.36;99127.38;1799937;78;21096;-65
2020/12/13 03:16:04;;;;;;;17.52;11.50;;;;;;;-0.19;90.29;99118.86;1784517;79;21477;-65
2020/12/13 03:18:32;;;;;;;17.85;11.48;;;;;;;-0.15;90.30;99124.38;1799969;79;21136;-65
2020/12/13 03:20:59;;;;;;;16.60;11.10;;;;;;;-0.13;90.32;99119.27;1799965;79;21112;-65
2020/12/13 03:23:27;;;;;;;18.27;12.63;;;;;;;-0.11;90.33;99113.72;1799922;79;21196;-65
2020/12/13 03:25:54;;;;;;;16.00;11.68;;;;;;;-0.09;90.26;99107.75;1799706;78;21156;-65
2020/12/13 03:28:22;;;;;;;16.52;10.55;;;;;;;-0.06;90.18;99113.28;1799927;78;21137;-65
2020/12/13 03:30:49;;;;;;;18.77;12.33;;;;;;;-0.04;90.08;99113.70;1799908;79;21128;-65
2020/12/13 03:33:17;;;;;;;19.42;11.80;;;;;;;-0.04;90.11;99112.42;1799936;79;21482;-65
2020/12/13 03:35:45;;;;;;;16.77;12.23;;;;;;;-0.05;90.11;99112.00;1799917;79;21389;-65
2020/12/13 03:38:12;;;;;;;17.52;11.75;;;;;;;-0.06;90.08;99106.47;1799791;78;21065;-65
2020/12/13 03:40:40;;;;;;;17.60;10.82;;;;;;;-0.06;90.01;99105.61;1799894;79;21077;-65
2020/12/13 03:43:08;;;;;;;14.63;10.93;;;;;;;-0.08;90.11;99113.29;1799904;79;21069;-65
2020/12/13 03:45:36;;;;;;;15.32;11.10;;;;;;;-0.09;90.22;99108.18;1799921;79;21057;-65
2020/12/13 03:48:05;;;;;;;18.07;11.00;;;;;;;-0.10;90.45;99112.87;1799917;79;21204;-65
2020/12/13 03:50:38;;;;;;;17.67;10.98;;;;;;;-0.09;90.52;99120.53;1799862;79;21104;-65
2020/12/13 03:53:11;;;;;;;15.83;10.70;;;;;;;-0.03;90.55;99123.50;1799939;78;21061;-65
2020/12/13 03:55:40;;;;;;;19.23;11.78;;;;;;;0.00;90.54;99120.94;1799582;79;21127;-65
2020/12/13 03:58:09;;;;;;;19.27;11.63;;;;;;;0.05;90.57;99122.16;1799614;79;21167;-65
2020/12/13 04:00:37;;;;;;;19.55;11.48;;;;;;;0.09;90.59;99120.02;1799912;79;21193;-65
2020/12/13 04:03:05;;;;;;;17.30;11.10;;;;;;;0.13;90.59;99117.45;1799808;79;21506;-65
2020/12/13 04:05:34;;;;;;;18.40;11.53;;;;;;;0.17;90.45;99112.74;1799850;79;21056;-65
2020/12/13 04:08:02;;;;;;;17.62;11.53;;;;;;;0.20;90.39;99106.77;1799870;79;21156;-65
2020/12/13 04:10:29;;;;;;;22.37;12.45;;;;;;;0.23;90.40;99111.41;1799917;79;21104;-65
2020/12/13 04:12:56;;;;;;;21.33;12.07;;;;;;;0.28;90.49;99107.13;1799856;78;22769;-65
2020/12/13 04:15:24;;;;;;;21.70;13.05;;;;;;;0.32;90.41;99110.09;1799822;78;21489;-65
2020/12/13 04:17:53;;;;;;;18.87;11.68;;;;;;;0.37;90.38;99098.55;1799856;78;21056;-65
2020/12/13 04:20:20;;;;;;;24.20;11.83;;;;;;;0.42;90.22;99099.35;1799894;78;21108;-65
2020/12/13 04:22:48;;;;;;;19.17;12.13;;;;;;;0.45;90.25;99098.05;1799896;79;21127;-65
2020/12/13 04:25:16;;;;;;;22.27;12.93;;;;;;;0.48;90.20;99093.35;1799870;79;21201;-65
2020/12/13 04:27:43;;;;;;;20.10;11.70;;;;;;;0.50;90.13;99091.20;1799695;79;21061;-65
2020/12/13 04:30:11;;;;;;;21.37;11.85;;;;;;;0.52;90.07;99097.59;1799824;78;21108;-65
2020/12/13 04:32:39;;;;;;;20.57;12.45;;;;;;;0.55;89.99;99102.69;1799844;79;21933;-65
2020/12/13 04:35:07;;;;;;;24.43;13.32;;;;;;;0.57;89.99;99103.11;1799903;79;21042;-65
2020/12/13 04:37:35;;;;;;;20.88;12.58;;;;;;;0.58;89.94;99100.97;1799874;79;22426;-64
2020/12/13 04:40:04;;;;;;;20.35;12.93;;;;;;;0.62;89.93;99099.20;1799814;79;21080;-64
2020/12/13 04:42:37;;;;;;;19.45;12.37;;;;;;;0.65;89.85;99101.75;1799895;79;21092;-64
2020/12/13 04:45:08;;;;;;;18.25;11.90;;;;;;;0.67;89.78;99102.16;1800047;78;21255;-64
2020/12/13 04:47:43;;;;;;;18.02;13.03;;;;;;;0.71;89.74;99105.55;1800004;79;21048;-64
2020/12/13 04:50:10;;;;;;;19.70;13.22;;;;;;;0.72;89.65;99104.69;1799971;79;22180;-64
2020/12/13 04:52:38;;;;;;;21.10;13.18;;;;;;;0.74;89.65;99102.13;1784333;79;21159;-64
2020/12/13 04:55:05;;;;;;;17.92;11.85;;;;;;;0.78;89.57;99096.13;1799854;79;21426;-64
2020/12/13 04:57:33;;;;;;;18.45;11.78;;;;;;;0.83;89.50;99099.47;1799846;78;21552;-64
2020/12/13 05:00:01;;;;;;;20.02;13.78;;;;;;;0.86;89.44;99095.61;1799856;79;21101;-64
2020/12/13 05:02:28;;;;;;;19.52;13.05;;;;;;;0.89;89.37;99101.56;1799847;79;21426;-64
2020/12/13 05:04:56;;;;;;;18.80;13.22;;;;;;;0.89;89.18;99093.03;1799787;79;21097;-63
2020/12/13 05:07:24;;;;;;;21.00;12.78;;;;;;;0.90;89.08;99098.14;1799852;78;21037;-66
2020/12/13 05:09:53;;;;;;;17.23;12.95;;;;;;;0.91;89.00;99098.56;1799906;78;21060;-63
2020/12/13 05:12:24;;;;;;;18.27;12.85;;;;;;;0.90;89.00;99093.45;1799826;78;21052;-66
2020/12/13 05:14:52;;;;;;;20.40;12.95;;;;;;;0.90;89.06;99103.69;1799888;79;21350;-65
2020/12/13 05:17:19;;;;;;;19.42;12.68;;;;;;;0.90;89.01;99099.42;1799798;78;21568;-64
2020/12/13 05:19:49;;;;;;;17.73;12.93;;;;;;;0.91;88.93;99107.52;1799841;79;21049;-64
2020/12/13 05:22:23;;;;;;;18.37;12.23;;;;;;;0.93;88.91;99106.23;1799833;78;21044;-64
2020/12/13 05:24:51;;;;;;;17.65;12.53;;;;;;;0.94;88.96;99102.37;1799837;79;21077;-64
2020/12/13 05:27:22;;;;;;;20.08;13.60;;;;;;;0.95;88.94;99105.36;1799662;78;21358;-64
2020/12/13 05:29:53;;;;;;;17.50;12.68;;;;;;;0.96;88.98;99109.62;1799903;78;21528;-64
2020/12/13 05:32:23;;;;;;;16.10;12.28;;;;;;;0.97;88.87;99101.50;1784648;79;21548;-65
2020/12/13 05:34:51;;;;;;;17.27;12.07;;;;;;;1.00;88.84;99104.02;1799774;78;21123;-63
2020/12/13 05:37:18;;;;;;;20.05;13.08;;;;;;;1.02;88.87;99105.70;1799866;78;21131;-64
2020/12/13 05:39:51;;;;;;;17.30;13.70;;;;;;;1.04;88.78;99107.81;1799826;79;21257;-64
2020/12/13 05:42:29;;;;;;;17.95;13.88;;;;;;;1.07;88.82;99115.91;1799540;78;21140;-64
2020/12/13 05:53:15;;;;;;;21.85;14.40;;;;;;;1.11;88.67;99120.14;1799890;79;21206;-65
2020/12/13 05:55:44;;;;;;;23.20;14.70;;;;;;;1.12;88.67;99124.41;1784255;79;21076;-65
2020/12/13 05:58:12;;;;;;;23.65;14.33;;;;;;;1.16;88.65;99125.23;1784527;79;21489;-65
2020/12/13 06:00:40;;;;;;;19.20;14.35;;;;;;;1.18;88.55;99125.64;1799803;79;21132;-65
2020/12/13 06:03:08;;;;;;;25.17;15.25;;;;;;;1.20;88.63;99121.33;1799866;79;21159;-65
2020/12/13 06:05:36;;;;;;;25.17;15.50;;;;;;;1.25;88.62;99120.01;1784371;79;21364;-65
2020/12/13 06:08:05;;;;;;;24.35;15.60;;;;;;;1.28;88.52;99116.14;1799743;78;21064;-65
2020/12/13 06:10:34;;;;;;;27.40;15.70;;;;;;;1.28;88.39;99110.58;1799898;78;21561;-65
2020/12/13 06:13:06;;;;;;;25.50;16.40;;;;;;;1.29;88.33;99108.87;1799779;78;21120;-65
2020/12/13 06:15:35;;;;;;;28.52;17.62;;;;;;;1.30;88.40;99114.41;1800126;78;21037;-65
2020/12/13 06:18:04;;;;;;;29.10;17.60;;;;;;;1.32;88.42;99113.97;1799835;79;21189;-64
2020/12/13 06:20:32;;;;;;;26.95;16.35;;;;;;;1.34;88.43;99112.24;1799764;79;21113;-65
2020/12/13 06:23:00;;;;;;;26.10;16.07;;;;;;;1.35;88.22;99114.80;1799780;78;21112;-64
2020/12/13 06:25:27;;;;;;;29.52;17.20;;;;;;;1.33;88.20;99111.83;1799780;79;21054;-64
2020/12/13 06:27:57;;;;;;;30.90;19.10;;;;;;;1.33;88.35;99113.95;1805583;79;21054;-64
2020/12/13 06:30:26;;;;;;;30.50;17.77;;;;;;;1.37;88.44;99116.06;1807740;79;21372;-64
2020/12/13 06:32:53;;;;;;;29.70;16.27;;;;;;;1.41;88.37;99124.11;1807952;78;21069;-65
2020/12/13 06:35:21;;;;;;;30.17;16.93;;;;;;;1.41;88.15;99125.39;1807848;78;21120;-65
2020/12/13 06:37:48;;;;;;;27.40;16.45;;;;;;;1.43;88.23;99124.09;1807872;78;21490;-64
2020/12/13 06:40:20;;;;;;;23.87;16.02;;;;;;;1.44;88.26;99121.52;1807907;78;21057;-64
2020/12/13 06:42:46;;;;;;;28.67;18.23;;;;;;;1.46;88.18;99130.05;1807644;79;21470;-64
2020/12/13 06:45:15;;;;;;;25.12;16.77;;;;;;;1.46;88.18;99128.77;1807816;79;21085;-64
2020/12/13 06:47:45;;;;;;;28.25;19.15;;;;;;;1.49;88.24;99122.33;1807961;79;21046;-64
2020/12/13 06:50:23;;;;;;;22.45;15.45;;;;;;;1.54;88.04;99126.13;1807971;78;21061;-64
2020/12/13 06:52:52;;;;;;;21.95;14.53;;;;;;;1.54;87.97;99123.57;1807908;79;21109;-65
2020/12/13 06:55:33;;;;;;;23.00;15.38;;;;;;;1.57;88.10;99120.98;1807898;78;21186;-65
2020/12/13 06:58:01;;;;;;;25.45;16.42;;;;;;;1.61;88.01;99131.16;1807813;79;21605;-65
2020/12/13 07:00:29;;;;;;;25.45;15.25;;;;;;;1.64;87.86;99126.43;1807844;78;21125;-65
2020/12/13 07:02:58;;;;;;;22.73;14.50;;;;;;;1.64;87.66;99122.16;1708689;79;21045;-65
2020/12/13 07:05:54;;;;;;;19.73;13.50;;;;;;;1.63;87.58;99125.58;1807873;79;21057;-65
2020/12/13 07:08:22;;;;;;;26.73;16.80;;;;;;;1.63;87.63;99124.30;1807958;78;21526;-64
2020/12/13 07:10:52;;;;;;;25.40;16.85;;;;;;;1.65;87.65;99123.86;1807756;78;21156;-65
2020/12/13 07:13:22;;;;;;;20.72;13.60;;;;;;;1.66;87.65;99121.70;1807772;78;21114;-64
2020/12/13 07:18:27;;;;;;;18.90;14.90;;;;;;;1.71;87.50;99116.10;1807911;78;21049;-65
2020/12/13 07:20:55;;;;;;;19.42;13.38;;;;;;;1.74;87.53;99116.50;1807842;79;21494;-66
2020/12/13 07:23:24;;;;;;;19.42;14.58;;;;;;;1.77;87.38;99122.03;1807822;79;21548;-66
2020/12/13 07:25:52;;;;;;;18.27;13.25;;;;;;;1.74;87.26;99121.63;1807907;78;21533;-65
2020/12/13 07:28:22;;;;;;;19.65;12.68;;;;;;;1.74;87.34;99117.79;1807662;78;21994;-65
2020/12/13 07:30:50;;;;;;;22.62;13.35;;;;;;;1.73;87.30;99116.94;1779536;79;21214;-65
2020/12/13 07:33:18;;;;;;;21.15;13.70;;;;;;;1.75;87.39;99122.48;1807838;78;21337;-65
2020/12/13 07:35:46;;;;;;;19.70;14.28;;;;;;;1.77;87.36;99120.32;1807778;79;21066;-65
2020/12/13 07:38:14;;;;;;;20.48;13.55;;;;;;;1.80;87.50;99124.10;1807796;79;21045;-65
2020/12/13 07:40:45;;;;;;;20.37;13.35;;;;;;;1.87;87.39;99114.63;1807811;79;21125;-65
2020/12/13 07:43:13;;;;;;;18.00;14.38;;;;;;;1.91;87.21;99115.86;1807850;78;21034;-64
2020/12/13 07:45:40;;;;;;;21.95;14.78;;;;;;;1.93;87.16;99111.57;1807776;79;21557;-64
2020/12/13 07:48:08;;;;;;;20.43;14.53;;;;;;;1.97;87.27;99118.80;1807701;78;21152;-65
2020/12/13 07:50:45;;;;;;;19.30;12.70;;;;;;;2.03;87.13;99116.13;1807816;79;21585;-64
2020/12/13 07:53:25;;;;;;;16.48;12.07;;;;;;;2.08;86.96;99112.65;1807829;79;21133;-64
2020/12/13 07:55:54;;;;;;;18.87;12.65;;;;;;;2.11;86.69;99113.48;1807945;78;21478;-64
2020/12/13 07:58:22;;;;;;;18.48;11.88;;;;;;;2.12;86.66;99116.03;1807809;79;21210;-64
2020/12/13 08:00:49;;;;;;;18.55;12.18;;;;;;;2.12;86.56;99115.18;1807719;78;21537;-65
2020/12/13 08:03:17;;;;;;;19.42;13.38;;;;;;;2.13;86.48;99122.86;1807796;78;21045;-64
2020/12/13 08:05:45;;;;;;;18.50;11.60;;;;;;;2.16;86.39;99121.53;1807760;78;21135;-65
2020/12/13 08:08:12;;;;;;;14.30;11.45;;;;;;;2.18;86.30;99116.39;1753652;79;21097;-64
2020/12/13 08:10:40;;;;;;;16.55;12.58;;;;;;;2.18;86.26;99121.09;1807776;79;21372;-64
2020/12/13 08:13:08;;;;;;;18.00;13.00;;;;;;;2.18;86.23;99114.67;1778877;79;21868;-64
2020/12/13 08:15:36;;;;;;;18.12;13.75;;;;;;;2.21;86.18;99116.32;1807797;79;21145;-64
2020/12/13 08:18:07;;;;;;;17.87;12.20;;;;;;;2.22;86.08;99113.73;1807768;78;21053;-64
2020/12/13 08:20:43;;;;;;;14.23;10.60;;;;;;;2.20;85.60;99114.19;1807895;79;21038;-64
2020/12/13 08:23:11;;;;;;;14.47;10.32;;;;;;;2.17;85.76;99115.97;1807815;79;21354;-64
2020/12/13 08:25:38;;;;;;;19.10;11.97;;;;;;;2.16;85.91;99112.99;1807691;78;21600;-64
2020/12/13 08:28:06;;;;;;;16.32;12.03;;;;;;;2.17;85.98;99112.13;1810800;79;21116;-64
2020/12/13 08:30:34;;;;;;;18.42;12.20;;;;;;;2.19;85.77;99112.52;1786756;79;21510;-64
2020/12/13 08:33:02;;;;;;;14.18;11.00;;;;;;;2.14;85.46;99110.45;1786738;79;21120;-64
2020/12/13 08:35:32;;;;;;;16.35;10.70;;;;;;;2.11;85.58;99116.89;1761268;79;21319;-64
2020/12/13 08:38:01;;;;;;;17.07;12.25;;;;;;;2.05;85.77;99112.69;1813430;78;21126;-64
2020/12/13 08:40:40;;;;;;;13.58;10.68;;;;;;;2.06;85.93;99113.53;1813465;78;21164;-64
2020/12/13 08:43:08;;;;;;;14.35;11.30;;;;;;;2.06;86.02;99107.97;1813489;78;21065;-65
2020/12/13 08:45:37;;;;;;;14.28;10.28;;;;;;;2.10;86.04;99114.34;1813479;79;21077;-65
2020/12/13 08:48:06;;;;;;;17.07;10.05;;;;;;;2.08;85.77;99102.82;1813058;79;21361;-65
2020/12/13 08:50:40;;;;;;;13.75;10.48;;;;;;;2.03;85.77;99104.59;1813376;79;21061;-64
2020/12/13 08:53:25;;;;;;;15.65;10.53;;;;;;;2.00;85.96;99100.34;1813490;78;21054;-64
2020/12/13 08:56:09;;;;;;;15.32;10.50;;;;;;;2.01;86.12;99108.89;1813515;78;21045;-65
2020/12/13 08:58:52;;;;;;;13.85;10.10;;;;;;;2.03;86.07;99114.42;1813639;79;21481;-66
2020/12/13 09:01:26;;;;;;;11.20;8.15;;;;;;;2.05;86.12;99118.25;1813523;79;21596;-66
2020/12/13 09:03:54;;;;;;;16.12;9.73;;;;;;;2.11;86.12;99114.77;1813656;78;21540;-66
2020/12/13 09:06:30;;;;;;;12.80;9.20;;;;;;;2.12;86.11;99110.05;1813425;79;21179;-66
2020/12/13 09:09:12;;;;;;;12.60;10.15;;;;;;;2.17;85.99;99110.84;1813497;79;21048;-66
2020/12/13 09:11:41;;;;;;;13.68;10.20;;;;;;;2.16;85.90;99108.71;1813589;77;21199;-64
2020/12/13 09:14:09;;;;;;;12.47;9.10;;;;;;;2.18;85.91;99113.39;1813479;79;21413;-64
2020/12/13 09:16:37;;;;;;;11.05;8.10;;;;;;;2.21;85.91;99116.32;1813409;78;21070;-65
2020/12/13 09:19:12;;;;;;;15.72;9.60;;;;;;;2.24;85.77;99120.13;1740668;78;21201;-64
2020/12/13 09:21:58;;;;;;;9.00;7.85;;;;;;;2.25;85.78;99118.83;1709098;82;21090;-64
2020/12/13 09:24:31;;;;;;;12.65;10.25;;;;;;;2.25;85.57;99111.56;1723993;83;21492;-65
2020/12/13 09:27:08;;;;;;;9.15;7.05;;;;;;;2.23;85.46;99112.87;1709240;82;21382;-65
2020/12/13 09:29:38;;;;;;;10.63;8.45;;;;;;;2.22;85.39;99111.60;1723958;82;21103;-64
2020/12/13 09:32:08;;;;;;;10.70;8.78;;;;;;;2.21;85.54;99112.04;1709101;84;21062;-64
2020/12/13 09:34:37;;;;;;;11.48;8.35;;;;;;;2.23;85.55;99116.72;1723970;82;21162;-64
2020/12/13 09:37:10;;;;;;;10.28;8.33;;;;;;;2.26;85.66;99117.97;1709083;84;21169;-64
2020/12/13 09:39:38;;;;;;;9.85;6.60;;;;;;;2.32;85.61;99117.05;1724007;83;21372;-64
2020/12/13 09:42:08;;;;;;;11.45;8.48;;;;;;;2.38;85.27;99114.40;1708893;83;21101;-64
2020/12/13 09:44:36;;;;;;;11.48;9.13;;;;;;;2.37;85.23;99118.69;1709096;83;21069;-64
2020/12/13 09:47:05;;;;;;;11.50;9.30;;;;;;;2.37;85.15;99117.83;1723961;83;21550;-64
2020/12/13 09:49:33;;;;;;;9.48;8.45;;;;;;;2.37;85.19;99114.83;1709107;82;21144;-64
2020/12/13 09:52:02;;;;;;;11.45;8.35;;;;;;;2.39;84.83;99110.53;1723972;83;21375;-64
2020/12/13 09:54:30;;;;;;;21.20;14.45;;;;;;;2.37;84.81;99107.13;1709135;84;21554;-64
2020/12/13 09:56:58;;;;;;;18.45;12.55;;;;;;;2.38;85.03;99097.28;1723911;83;21055;-64
2020/12/13 09:59:26;;;;;;;10.10;8.60;;;;;;;2.42;85.08;99100.63;1709034;82;21069;-64
2020/12/13 10:01:54;;;;;;;12.10;9.55;;;;;;;2.43;84.86;99091.63;1723978;83;21068;-64
2020/12/13 10:04:23;;;;;;;10.95;7.78;;;;;;;2.44;84.92;99092.47;1709061;82;21919;-64
2020/12/13 10:09:25;;;;;;;9.83;7.55;;;;;;;2.43;84.92;99101.89;1688812;84;21171;-64
2020/12/13 10:11:52;;;;;;;11.00;8.80;;;;;;;2.43;84.78;99105.73;1723970;82;21135;-65
2020/12/13 10:14:21;;;;;;;12.28;9.78;;;;;;;2.38;84.82;99113.96;1708231;82;21096;-65
2020/12/13 10:16:49;;;;;;;13.28;10.53;;;;;;;2.37;84.98;99103.72;1724066;83;21514;-64
2020/12/13 10:19:18;;;;;;;10.68;9.03;;;;;;;2.36;84.95;99101.59;1707650;82;21107;-65
2020/12/13 10:21:46;;;;;;;11.97;9.60;;;;;;;2.36;84.97;99104.16;1705183;84;21103;-66
2020/12/13 10:24:14;;;;;;;12.50;9.50;;;;;;;2.35;84.83;99098.61;1705180;83;21131;-65
2020/12/13 10:26:43;;;;;;;15.28;10.93;;;;;;;2.33;85.02;99101.63;1705133;84;21635;-66
2020/12/13 10:29:11;;;;;;;13.98;11.10;;;;;;;2.31;84.99;99099.95;1676831;84;21402;-65
2020/12/13 10:31:46;;;;;;;14.63;11.18;;;;;;;2.30;85.37;99095.68;1705139;84;21083;-65
2020/12/13 10:34:16;;;;;;;13.45;10.10;;;;;;;2.32;85.36;99087.09;1705190;84;21156;-65
2020/12/13 10:36:44;;;;;;;12.75;9.48;;;;;;;2.31;85.31;99087.96;1676881;85;21164;-65
2020/12/13 10:39:12;;;;;;;14.50;11.05;;;;;;;2.28;85.43;99089.28;1705166;84;21158;-65
2020/12/13 10:41:39;;;;;;;16.82;11.28;;;;;;;2.29;85.55;99086.28;1705127;84;22364;-65
2020/12/13 10:44:10;;;;;;;20.70;12.53;;;;;;;2.30;85.78;99094.39;1676793;84;21098;-65
2020/12/13 10:46:40;;;;;;;17.02;12.07;;;;;;;2.35;85.81;99091.34;1705113;84;21476;-65
2020/12/13 10:49:08;;;;;;;14.23;9.85;;;;;;;2.37;85.65;99087.89;1705173;84;21056;-65
2020/12/13 10:51:37;;;;;;;16.75;11.43;;;;;;;2.39;85.62;99078.88;1705172;83;21083;-65
2020/12/13 10:54:05;;;;;;;20.57;12.45;;;;;;;2.36;85.42;99074.64;1705232;84;21539;-65
2020/12/13 10:56:33;;;;;;;16.52;11.60;;;;;;;2.36;85.77;99072.50;1676711;85;21137;-65
2020/12/13 10:59:00;;;;;;;17.48;11.15;;;;;;;2.40;85.88;99063.43;1705147;84;21062;-65
2020/12/13 11:01:28;;;;;;;15.30;10.98;;;;;;;2.42;85.47;99068.11;1705149;84;21080;-65
2020/12/13 11:03:56;;;;;;;16.52;11.15;;;;;;;2.43;85.55;99071.52;1676763;84;21085;-65
2020/12/13 11:06:37;;;;;;;17.35;12.13;;;;;;;2.43;85.43;99077.94;1687586;84;21376;-65
2020/12/13 11:09:05;;;;;;;17.70;12.05;;;;;;;2.41;85.50;99077.96;1736007;82;21539;-65
2020/12/13 11:11:32;;;;;;;17.37;12.70;;;;;;;2.40;85.59;99073.70;1735767;81;21159;-65
2020/12/13 11:14:00;;;;;;;18.05;11.95;;;;;;;2.42;85.58;99074.95;1734435;82;21144;-65
2020/12/13 11:16:28;;;;;;;20.57;13.35;;;;;;;2.42;85.44;99082.23;1734456;82;21071;-65
2020/12/13 11:18:55;;;;;;;21.52;13.62;;;;;;;2.38;85.45;99078.03;1734442;82;21464;-66
2020/12/13 11:21:23;;;;;;;20.72;13.78;;;;;;;2.36;85.66;99075.92;1734420;82;21139;-66
2020/12/13 11:23:50;;;;;;;23.75;13.83;;;;;;;2.39;85.83;99082.73;1734447;82;21143;-65
2020/12/13 11:26:18;;;;;;;22.60;13.10;;;;;;;2.42;85.80;99085.22;1734434;82;21064;-65
2020/12/13 11:28:45;;;;;;;24.60;13.00;;;;;;;2.43;85.57;99086.92;1734474;81;21063;-66
2020/12/13 11:31:16;;;;;;;20.35;12.73;;;;;;;2.42;85.68;99087.36;1734426;82;21211;-67
2020/12/13 11:33:44;;;;;;;21.55;13.25;;;;;;;2.43;85.79;99083.92;1734428;81;21079;-65
2020/12/13 11:36:12;;;;;;;20.85;13.83;;;;;;;2.45;85.75;99083.91;1734445;82;21136;-65
2020/12/13 11:38:40;;;;;;;19.07;13.90;;;;;;;2.43;85.70;99076.66;1734427;82;21163;-66
2020/12/13 11:41:08;;;;;;;19.42;13.75;;;;;;;2.43;85.74;99077.94;1734461;82;21104;-65
2020/12/13 11:43:35;;;;;;;22.22;13.35;;;;;;;2.45;85.76;99081.77;1734372;82;21390;-65
2020/12/13 11:46:05;;;;;;;19.73;12.85;;;;;;;2.46;85.68;99071.92;1734226;82;21128;-65
2020/12/13 11:48:33;;;;;;;21.97;14.00;;;;;;;2.42;85.49;99073.23;1734428;82;21579;-65